createdAt,value
2019-04-03T00:00:34.531Z,89.15
2019-04-03T00:01:34.727Z,89.51
2019-04-03T00:02:34.369Z,88.53
2019-04-03T00:03:34.288Z,89.04
2019-04-03T00:04:34.674Z,87.41
2019-04-03T00:05:35.466Z,87.51
2019-04-03T00:06:35.399Z,87.20
2019-04-03T00:07:35.894Z,86.79
2019-04-03T00:08:34.761Z,86.79
2019-04-03T00:09:35.899Z,86.69
2019-04-03T00:10:36.011Z,86.55
2019-04-03T00:11:34.063Z,86.85
2019-04-03T00:12:34.143Z,86.38
2019-04-03T00:13:34.045Z,86.58
2019-04-03T00:14:34.169Z,86.48
2019-04-03T00:15:34.025Z,86.99
2019-04-03T00:16:34.116Z,87.04
2019-04-03T00:17:33.999Z,87.04
2019-04-03T00:18:35.077Z,87.45
2019-04-03T00:19:34.007Z,87.41
2019-04-03T00:20:33.997Z,87.24
2019-04-03T00:21:35.083Z,87.24
2019-04-03T00:22:33.962Z,87.14
2019-04-03T00:23:33.989Z,87.04
2019-04-03T00:24:33.954Z,87.14
2019-04-03T00:25:33.910Z,86.93
2019-04-03T00:26:33.967Z,87.85
2019-04-03T00:27:33.964Z,88.62
2019-04-03T00:28:33.895Z,89.13
2019-04-03T00:29:33.952Z,89.54
2019-04-03T00:30:33.864Z,89.33
2019-04-03T00:31:33.853Z,89.23
2019-04-03T00:32:33.844Z,89.37
2019-04-03T00:33:33.874Z,89.69
2019-04-03T00:34:33.825Z,89.69
2019-04-03T00:35:33.908Z,89.48
2019-04-03T00:36:33.878Z,90.09
2019-04-03T00:37:33.873Z,90.40
2019-04-03T00:38:33.807Z,90.20
2019-04-03T00:39:33.767Z,90.24
2019-04-03T00:40:33.858Z,90.55
2019-04-03T00:41:33.732Z,90.65
2019-04-03T00:42:33.729Z,91.27
2019-04-03T00:43:33.760Z,91.37
2019-04-03T00:44:33.720Z,91.16
2019-04-03T00:45:34.765Z,91.37
2019-04-03T00:46:33.758Z,90.85
2019-04-03T00:47:33.661Z,91.47
2019-04-03T00:48:33.652Z,91.51
2019-04-03T00:49:33.781Z,91.31
2019-04-03T00:50:33.634Z,92.70
2019-04-03T00:51:33.694Z,92.29
2019-04-03T00:52:33.606Z,91.51
2019-04-03T00:53:33.617Z,91.93
2019-04-03T00:54:33.605Z,92.13
2019-04-03T00:55:33.676Z,91.72
2019-04-03T00:56:33.576Z,91.82
2019-04-03T00:57:33.715Z,92.74
2019-04-03T00:58:33.538Z,92.23
2019-04-03T00:59:35.627Z,92.54
2019-04-03T01:00:33.517Z,92.44
2019-04-03T01:01:33.581Z,92.74
2019-04-03T01:02:33.488Z,92.54
2019-04-03T01:03:33.644Z,91.51
2019-04-03T01:04:33.500Z,91.93
2019-04-03T01:05:33.550Z,92.07
2019-04-03T01:06:33.556Z,92.07
2019-04-03T01:07:33.491Z,91.86
2019-04-03T01:08:33.433Z,92.69
2019-04-03T01:09:33.442Z,92.48
2019-04-03T01:10:33.582Z,92.48
2019-04-03T01:11:33.453Z,92.38
2019-04-03T01:12:33.386Z,92.89
2019-04-03T01:13:33.445Z,93.46
2019-04-03T01:14:33.385Z,93.67
2019-04-03T01:15:33.355Z,93.05
2019-04-03T01:16:33.651Z,92.50
2019-04-03T01:17:34.927Z,92.64
2019-04-03T01:18:35.261Z,92.19
2019-04-03T01:19:36.134Z,92.03
2019-04-03T01:20:34.577Z,91.51
2019-04-03T01:21:33.279Z,91.41
2019-04-03T01:22:33.299Z,91.93
2019-04-03T01:23:33.259Z,91.51
2019-04-03T01:24:33.339Z,91.66
2019-04-03T01:25:33.250Z,92.03
2019-04-03T01:26:33.283Z,92.95
2019-04-03T01:27:33.212Z,92.03
2019-04-03T01:28:33.213Z,92.54
2019-04-03T01:29:33.192Z,92.44
2019-04-03T01:30:33.303Z,92.48
2019-04-03T01:31:33.173Z,92.79
2019-04-03T01:32:33.184Z,92.58
2019-04-03T01:33:33.145Z,92.38
2019-04-03T01:34:34.135Z,92.38
2019-04-03T01:35:33.135Z,92.38
2019-04-03T01:36:33.107Z,92.42
2019-04-03T01:37:33.274Z,92.32
2019-04-03T01:38:33.097Z,92.58
2019-04-03T01:39:33.071Z,92.63
2019-04-03T01:40:33.178Z,92.63
2019-04-03T01:41:33.169Z,93.14
2019-04-03T01:42:33.050Z,92.83
2019-04-03T01:43:33.141Z,93.04
2019-04-03T01:44:33.021Z,92.63
2019-04-03T01:45:33.123Z,92.63
2019-04-03T01:46:32.993Z,93.14
2019-04-03T01:47:33.088Z,93.14
2019-04-03T01:48:32.976Z,93.14
2019-04-03T01:49:34.062Z,92.73
2019-04-03T01:50:33.058Z,92.93
2019-04-03T01:51:32.984Z,93.04
2019-04-03T01:52:32.925Z,93.49
2019-04-03T01:53:33.226Z,93.18
2019-04-03T01:54:33.708Z,93.59
2019-04-03T01:55:34.740Z,93.49
2019-04-03T01:56:35.906Z,93.70
2019-04-03T01:57:32.868Z,93.59
2019-04-03T01:58:32.857Z,93.80
2019-04-03T01:59:32.941Z,93.70
2019-04-03T02:00:32.930Z,93.90
2019-04-03T02:01:32.819Z,93.39
2019-04-03T02:02:33.848Z,94.01
2019-04-03T02:03:32.810Z,93.84
2019-04-03T02:04:32.793Z,93.23
2019-04-03T02:05:32.881Z,93.23
2019-04-03T02:06:32.771Z,93.64
2019-04-03T02:07:33.792Z,94.15
2019-04-03T02:08:32.733Z,94.26
2019-04-03T02:09:32.734Z,94.98
2019-04-03T02:10:32.733Z,94.77
2019-04-03T02:11:32.733Z,94.77
2019-04-03T02:12:32.865Z,94.81
2019-04-03T02:13:32.774Z,94.67
2019-04-03T02:14:32.669Z,95.02
2019-04-03T02:15:32.931Z,94.60
2019-04-03T02:16:32.656Z,94.51
2019-04-03T02:17:32.766Z,95.12
2019-04-03T02:18:32.640Z,95.33
2019-04-03T02:19:32.689Z,95.12
2019-04-03T02:20:32.700Z,95.23
2019-04-03T02:21:32.588Z,95.84
2019-04-03T02:22:34.629Z,95.43
2019-04-03T02:23:32.570Z,95.53
2019-04-03T02:24:32.620Z,95.53
2019-04-03T02:25:32.565Z,94.92
2019-04-03T02:26:33.075Z,94.81
2019-04-03T02:27:33.310Z,94.13
2019-04-03T02:28:34.210Z,93.93
2019-04-03T02:29:32.591Z,93.83
2019-04-03T02:30:32.809Z,93.62
2019-04-03T02:31:32.514Z,93.93
2019-04-03T02:32:32.493Z,93.83
2019-04-03T02:33:32.537Z,93.87
2019-04-03T02:34:34.670Z,94.08
2019-04-03T02:35:32.516Z,94.08
2019-04-03T02:36:33.634Z,94.28
2019-04-03T02:37:32.414Z,94.80
2019-04-03T02:38:32.478Z,95.00
2019-04-03T02:39:32.398Z,95.10
2019-04-03T02:40:33.155Z,95.36
2019-04-03T02:41:35.295Z,95.31
2019-04-03T02:42:32.363Z,95.42
2019-04-03T02:43:32.430Z,95.36
2019-04-03T02:44:32.310Z,95.56
2019-04-03T02:45:32.390Z,95.67
2019-04-03T02:46:32.292Z,95.46
2019-04-03T02:47:33.562Z,96.45
2019-04-03T02:48:32.682Z,96.49
2019-04-03T02:49:33.345Z,96.45
2019-04-03T02:50:32.253Z,96.18
2019-04-03T02:51:32.365Z,96.18
2019-04-03T02:52:32.245Z,96.28
2019-04-03T02:53:32.235Z,96.49
2019-04-03T02:54:34.660Z,96.55
2019-04-03T02:55:32.304Z,96.66
2019-04-03T02:56:32.311Z,97.06
2019-04-03T02:57:32.177Z,96.96
2019-04-03T02:58:32.178Z,97.06
2019-04-03T02:59:32.210Z,96.55
2019-04-03T03:00:33.602Z,96.75
2019-04-03T03:01:32.238Z,96.45
2019-04-03T03:02:32.125Z,96.55
2019-04-03T03:03:32.120Z,96.24
2019-04-03T03:04:32.120Z,96.66
2019-04-03T03:05:32.160Z,96.03
2019-04-03T03:06:33.141Z,96.18
2019-04-03T03:07:35.639Z,96.45
2019-04-03T03:08:32.055Z,95.83
2019-04-03T03:09:32.061Z,96.45
2019-04-03T03:10:32.095Z,96.45
2019-04-03T03:11:32.015Z,96.14
2019-04-03T03:12:32.090Z,96.14
2019-04-03T03:13:34.539Z,96.14
2019-04-03T03:14:31.990Z,96.24
2019-04-03T03:15:32.398Z,96.18
2019-04-03T03:16:32.067Z,96.08
2019-04-03T03:17:31.961Z,96.18
2019-04-03T03:18:31.998Z,96.18
2019-04-03T03:19:33.092Z,96.28
2019-04-03T03:20:31.919Z,96.28
2019-04-03T03:21:32.968Z,96.08
2019-04-03T03:22:32.157Z,96.49
2019-04-03T03:23:33.979Z,96.08
2019-04-03T03:24:31.897Z,96.49
2019-04-03T03:25:33.285Z,96.39
2019-04-03T03:26:31.905Z,96.59
2019-04-03T03:27:31.911Z,96.18
2019-04-03T03:28:31.831Z,96.08
2019-04-03T03:29:31.853Z,96.64
2019-04-03T03:30:42.660Z,96.12
2019-04-03T03:31:59.178Z,95.71
2019-04-03T03:32:35.678Z,96.74
2019-04-03T03:33:36.931Z,96.33
2019-04-03T03:34:51.502Z,95.61
2019-04-03T03:35:40.307Z,95.50
2019-04-03T03:36:33.422Z,95.61
2019-04-03T03:37:34.090Z,95.86
2019-04-03T03:38:32.047Z,96.53
2019-04-03T03:39:31.729Z,96.44
2019-04-03T03:40:31.797Z,96.23
2019-04-03T03:41:31.697Z,96.33
2019-04-03T03:42:32.212Z,96.84
2019-04-03T03:43:32.046Z,97.09
2019-04-03T03:44:31.658Z,97.26
2019-04-03T03:45:32.694Z,96.69
2019-04-03T03:46:31.748Z,96.89
2019-04-03T03:47:34.274Z,96.37
2019-04-03T03:48:31.728Z,96.58
2019-04-03T03:49:33.652Z,96.58
2019-04-03T03:50:31.564Z,96.79
2019-04-03T03:51:31.997Z,96.37
2019-04-03T03:52:36.075Z,96.58
2019-04-03T03:53:32.546Z,96.58
2019-04-03T03:54:31.761Z,96.58
2019-04-03T03:55:31.511Z,96.69
2019-04-03T03:56:32.951Z,96.79
2019-04-03T03:57:31.486Z,96.89
2019-04-03T03:58:31.478Z,96.79
2019-04-03T03:59:32.658Z,96.69
2019-04-03T04:00:31.763Z,96.58
2019-04-03T04:01:32.653Z,96.48
2019-04-03T04:02:31.558Z,97.30
2019-04-03T04:03:31.593Z,96.99
2019-04-03T04:04:31.653Z,97.30
2019-04-03T04:05:31.820Z,97.20
2019-04-03T04:06:35.011Z,96.99
2019-04-03T04:07:36.232Z,96.89
2019-04-03T04:08:31.679Z,96.99
2019-04-03T04:09:31.342Z,96.89
2019-04-03T04:10:36.220Z,97.09
2019-04-03T04:11:32.408Z,96.79
2019-04-03T04:12:31.392Z,96.89
2019-04-03T04:13:31.314Z,97.20
2019-04-03T04:14:31.740Z,96.99
2019-04-03T04:15:31.816Z,96.48
2019-04-03T04:16:35.912Z,96.37
2019-04-03T04:17:32.275Z,96.58
2019-04-03T04:18:31.383Z,96.99
2019-04-03T04:19:31.703Z,97.20
2019-04-03T04:20:31.232Z,97.09
2019-04-03T04:21:31.398Z,96.79
2019-04-03T04:22:31.533Z,97.09
2019-04-03T04:23:32.243Z,97.26
2019-04-03T04:24:31.277Z,97.20
2019-04-03T04:25:31.165Z,97.09
2019-04-03T04:26:31.693Z,97.30
2019-04-03T04:27:33.575Z,97.16
2019-04-03T04:28:31.139Z,97.05
2019-04-03T04:29:31.225Z,97.30
2019-04-03T04:30:31.278Z,97.41
2019-04-03T04:31:31.114Z,97.09
2019-04-03T04:32:33.298Z,97.36
2019-04-03T04:33:31.062Z,97.16
2019-04-03T04:34:32.084Z,97.16
2019-04-03T04:35:31.043Z,97.16
2019-04-03T04:36:31.297Z,97.47
2019-04-03T04:37:31.088Z,97.36
2019-04-03T04:38:31.044Z,97.36
2019-04-03T04:39:31.005Z,97.26
2019-04-03T04:40:31.653Z,97.36
2019-04-03T04:41:32.803Z,97.47
2019-04-03T04:42:31.355Z,97.26
2019-04-03T04:43:31.064Z,97.01
2019-04-03T04:44:31.215Z,97.01
2019-04-03T04:45:33.280Z,96.91
2019-04-03T04:46:31.018Z,97.31
2019-04-03T04:47:31.079Z,97.42
2019-04-03T04:48:30.928Z,97.42
2019-04-03T04:49:30.961Z,97.01
2019-04-03T04:50:30.965Z,96.80
2019-04-03T04:51:30.882Z,97.31
2019-04-03T04:52:31.198Z,96.91
2019-04-03T04:53:30.842Z,96.80
2019-04-03T04:54:31.295Z,96.80
2019-04-03T04:55:31.555Z,96.91
2019-04-03T04:56:31.007Z,96.18
2019-04-03T04:57:30.784Z,96.84
2019-04-03T04:58:30.785Z,96.64
2019-04-03T04:59:31.886Z,96.64
2019-04-03T05:00:30.755Z,96.64
2019-04-03T05:01:30.958Z,96.74
2019-04-03T05:02:30.736Z,96.74
2019-04-03T05:03:30.819Z,96.33
2019-04-03T05:04:30.717Z,96.59
2019-04-03T05:05:31.545Z,96.74
2019-04-03T05:06:30.699Z,96.70
2019-04-03T05:07:31.830Z,96.84
2019-04-03T05:08:32.220Z,96.95
2019-04-03T05:09:30.649Z,96.70
2019-04-03T05:10:30.685Z,96.70
2019-04-03T05:11:30.720Z,96.80
2019-04-03T05:12:30.787Z,96.39
2019-04-03T05:13:30.721Z,96.80
2019-04-03T05:14:30.601Z,96.70
2019-04-03T05:15:30.653Z,96.70
2019-04-03T05:16:30.594Z,96.80
2019-04-03T05:17:30.583Z,96.59
2019-04-03T05:18:30.748Z,96.03
2019-04-03T05:19:32.564Z,96.75
2019-04-03T05:20:30.747Z,96.24
2019-04-03T05:21:30.692Z,96.14
2019-04-03T05:22:30.505Z,95.83
2019-04-03T05:23:37.176Z,95.62
2019-04-03T05:24:30.486Z,94.90
2019-04-03T05:25:30.499Z,95.00
2019-04-03T05:26:32.195Z,95.00
2019-04-03T05:27:33.501Z,94.76
2019-04-03T05:28:30.439Z,94.76
2019-04-03T05:29:30.488Z,94.76
2019-04-03T05:30:31.479Z,94.18
2019-04-03T05:31:30.401Z,93.93
2019-04-03T05:32:30.582Z,94.24
2019-04-03T05:33:30.380Z,94.24
2019-04-03T05:34:30.410Z,94.24
2019-04-03T05:35:30.351Z,94.28
2019-04-03T05:36:30.480Z,94.34
2019-04-03T05:37:31.382Z,94.49
2019-04-03T05:38:30.444Z,93.93
2019-04-03T05:39:30.376Z,94.03
2019-04-03T05:40:30.284Z,93.93
2019-04-03T05:41:30.414Z,93.93
2019-04-03T05:42:30.306Z,94.24
2019-04-03T05:43:31.402Z,93.83
2019-04-03T05:44:32.906Z,94.03
2019-04-03T05:45:30.268Z,93.83
2019-04-03T05:46:30.252Z,93.73
2019-04-03T05:47:31.273Z,93.58
2019-04-03T05:48:30.286Z,93.88
2019-04-03T05:49:30.625Z,93.99
2019-04-03T05:50:30.189Z,93.88
2019-04-03T05:51:31.413Z,93.79
2019-04-03T05:52:30.173Z,93.88
2019-04-03T05:53:30.200Z,93.64
2019-04-03T05:54:30.174Z,93.64
2019-04-03T05:55:31.163Z,93.18
2019-04-03T05:56:30.123Z,92.57
2019-04-03T05:57:30.315Z,92.87
2019-04-03T05:58:30.282Z,92.67
2019-04-03T05:59:33.451Z,92.73
2019-04-03T06:00:30.084Z,92.73
2019-04-03T06:01:30.155Z,92.27
2019-04-03T06:02:30.074Z,91.60
2019-04-03T06:03:40.313Z,91.55
2019-04-03T06:04:31.085Z,91.14
2019-04-03T06:05:30.221Z,91.04
2019-04-03T06:06:29.998Z,90.08
2019-04-03T06:07:30.097Z,90.59
2019-04-03T06:08:30.198Z,89.87
2019-04-03T06:09:29.995Z,90.18
2019-04-03T06:10:32.372Z,89.83
2019-04-03T06:11:30.030Z,89.72
2019-04-03T06:12:29.961Z,89.62
2019-04-03T06:13:29.930Z,89.83
2019-04-03T06:14:29.922Z,88.80
2019-04-03T06:15:29.991Z,87.98
2019-04-03T06:16:29.941Z,88.18
2019-04-03T06:17:29.972Z,88.35
2019-04-03T06:18:31.986Z,88.04
2019-04-03T06:19:29.974Z,88.14
2019-04-03T06:20:29.853Z,87.73
2019-04-03T06:21:29.904Z,87.63
2019-04-03T06:22:29.846Z,87.57
2019-04-03T06:23:29.845Z,87.63
2019-04-03T06:24:30.022Z,87.73
2019-04-03T06:25:30.694Z,87.73
2019-04-03T06:26:29.926Z,87.73
2019-04-03T06:27:29.787Z,87.53
2019-04-03T06:28:29.777Z,87.43
2019-04-03T06:29:29.848Z,87.43
2019-04-03T06:30:29.747Z,87.53
2019-04-03T06:31:29.790Z,87.12
2019-04-03T06:32:30.164Z,87.63
2019-04-03T06:33:31.436Z,86.81
2019-04-03T06:34:29.690Z,86.87
2019-04-03T06:35:29.759Z,86.91
2019-04-03T06:36:29.681Z,86.87
2019-04-03T06:37:29.742Z,87.08
2019-04-03T06:38:29.800Z,85.95
2019-04-03T06:39:31.570Z,85.19
2019-04-03T06:40:29.705Z,84.88
2019-04-03T06:41:29.672Z,85.19
2019-04-03T06:42:29.650Z,85.30
2019-04-03T06:43:30.653Z,84.84
2019-04-03T06:44:29.585Z,83.72
2019-04-03T06:45:29.566Z,83.72
2019-04-03T06:46:29.936Z,83.82
2019-04-03T06:47:31.853Z,83.20
2019-04-03T06:48:29.725Z,83.37
2019-04-03T06:49:29.617Z,83.68
2019-04-03T06:50:29.509Z,83.17
2019-04-03T06:51:29.499Z,83.27
2019-04-03T06:52:29.758Z,82.92
2019-04-03T06:53:29.480Z,82.57
2019-04-03T06:54:31.697Z,82.37
2019-04-03T06:55:29.462Z,81.56
2019-04-03T06:56:29.441Z,81.56
2019-04-03T06:57:29.461Z,81.62
2019-04-03T06:58:37.308Z,80.39
2019-04-03T06:59:30.522Z,80.19
2019-04-03T07:00:29.463Z,80.29
2019-04-03T07:01:29.497Z,79.98
2019-04-03T07:02:31.604Z,79.68
2019-04-03T07:03:29.456Z,79.23
2019-04-03T07:04:29.356Z,79.33
2019-04-03T07:05:30.415Z,79.13
2019-04-03T07:06:29.335Z,78.72
2019-04-03T07:07:33.958Z,78.92
2019-04-03T07:08:34.843Z,78.41
2019-04-03T07:09:35.564Z,78.48
2019-04-03T07:10:30.297Z,78.48
2019-04-03T07:11:29.309Z,78.68
2019-04-03T07:12:29.334Z,79.09
2019-04-03T07:13:30.389Z,77.97
2019-04-03T07:14:29.240Z,78.27
2019-04-03T07:15:30.500Z,76.43
2019-04-03T07:16:29.236Z,77.15
2019-04-03T07:17:32.066Z,76.84
2019-04-03T07:18:29.289Z,76.84
2019-04-03T07:19:29.192Z,76.29
2019-04-03T07:20:29.228Z,76.90
2019-04-03T07:21:29.177Z,77.52
2019-04-03T07:22:29.194Z,76.94
2019-04-03T07:23:29.940Z,75.68
2019-04-03T07:24:29.814Z,74.83
2019-04-03T07:25:30.174Z,74.42
2019-04-03T07:26:29.105Z,73.30
2019-04-03T07:27:29.141Z,73.40
2019-04-03T07:28:30.629Z,73.16
2019-04-03T07:29:29.077Z,72.75
2019-04-03T07:30:29.098Z,72.04
2019-04-03T07:31:29.060Z,72.45
2019-04-03T07:32:29.089Z,73.81
2019-04-03T07:33:29.465Z,74.01
2019-04-03T07:34:29.032Z,74.73
2019-04-03T07:35:29.315Z,73.71
2019-04-03T07:36:29.101Z,73.16
2019-04-03T07:37:28.992Z,73.06
2019-04-03T07:38:29.094Z,72.75
2019-04-03T07:39:28.962Z,72.48
2019-04-03T07:40:28.952Z,73.27
2019-04-03T07:41:29.054Z,72.24
2019-04-03T07:42:28.933Z,73.23
2019-04-03T07:43:29.028Z,71.36
2019-04-03T07:44:29.841Z,70.31
2019-04-03T07:45:28.905Z,69.80
2019-04-03T07:46:28.898Z,69.67
2019-04-03T07:47:29.987Z,68.82
2019-04-03T07:48:28.890Z,68.31
2019-04-03T07:49:28.910Z,69.09
2019-04-03T07:50:28.846Z,68.24
2019-04-03T07:51:28.835Z,67.74
2019-04-03T07:52:29.919Z,67.74
2019-04-03T07:53:28.819Z,66.99
2019-04-03T07:54:29.859Z,67.40
2019-04-03T07:55:28.934Z,67.40
2019-04-03T07:56:28.999Z,66.99
2019-04-03T07:57:29.720Z,67.27
2019-04-03T07:58:31.140Z,66.58
2019-04-03T07:59:28.752Z,66.41
2019-04-03T08:00:28.843Z,67.19
2019-04-03T08:01:28.716Z,67.50
2019-04-03T08:02:28.774Z,67.30
2019-04-03T08:03:29.008Z,67.10
2019-04-03T08:04:29.735Z,67.50
2019-04-03T08:05:30.924Z,66.15
2019-04-03T08:06:29.048Z,66.46
2019-04-03T08:07:28.657Z,66.22
2019-04-03T08:08:28.895Z,65.71
2019-04-03T08:09:28.617Z,65.61
2019-04-03T08:10:30.237Z,64.97
2019-04-03T08:11:28.588Z,65.07
2019-04-03T08:12:28.579Z,64.73
2019-04-03T08:13:28.885Z,63.62
2019-04-03T08:14:28.593Z,63.89
2019-04-03T08:15:28.550Z,63.69
2019-04-03T08:16:29.650Z,63.08
2019-04-03T08:17:28.542Z,62.98
2019-04-03T08:18:28.611Z,63.49
2019-04-03T08:19:28.653Z,63.49
2019-04-03T08:20:30.647Z,63.49
2019-04-03T08:21:30.497Z,62.68
2019-04-03T08:22:28.485Z,63.49
2019-04-03T08:23:28.476Z,62.81
2019-04-03T08:24:28.446Z,63.39
2019-04-03T08:25:28.688Z,62.40
2019-04-03T08:26:28.426Z,63.85
2019-04-03T08:27:28.476Z,64.76
2019-04-03T08:28:30.308Z,64.79
2019-04-03T08:29:28.398Z,66.12
2019-04-03T08:30:28.488Z,65.10
2019-04-03T08:31:28.556Z,64.59
2019-04-03T08:32:28.640Z,65.41
2019-04-03T08:33:28.381Z,66.60
2019-04-03T08:34:30.749Z,65.88
2019-04-03T08:35:28.634Z,65.95
2019-04-03T08:36:28.314Z,64.20
2019-04-03T08:37:31.663Z,63.35
2019-04-03T08:38:28.343Z,62.34
2019-04-03T08:39:28.390Z,63.60
2019-04-03T08:40:28.274Z,62.66
2019-04-03T08:41:29.354Z,60.10
2019-04-03T08:42:29.112Z,60.10
2019-04-03T08:43:31.361Z,60.05
2019-04-03T08:44:28.216Z,59.00
2019-04-03T08:45:28.664Z,57.26
2019-04-03T08:46:29.287Z,57.16
2019-04-03T08:47:28.186Z,55.24
2019-04-03T08:48:28.247Z,53.40
2019-04-03T08:49:28.359Z,54.94
2019-04-03T08:50:28.789Z,54.53
2019-04-03T08:51:28.149Z,55.27
2019-04-03T08:52:29.197Z,54.28
2019-04-03T08:53:28.140Z,55.49
2019-04-03T08:54:29.140Z,55.60
2019-04-03T08:55:28.090Z,54.33
2019-04-03T08:56:28.346Z,54.41
2019-04-03T08:57:29.391Z,52.56
2019-04-03T08:58:28.074Z,52.94
2019-04-03T08:59:28.731Z,51.20
2019-04-03T09:00:28.047Z,50.50
2019-04-03T09:01:28.024Z,51.33
2019-04-03T09:02:28.015Z,51.28
2019-04-03T09:03:28.225Z,49.95
2019-04-03T09:04:28.289Z,50.93
2019-04-03T09:05:28.066Z,49.30
2019-04-03T09:06:28.151Z,47.89
2019-04-03T09:07:27.961Z,48.75
2019-04-03T09:08:28.149Z,47.04
2019-04-03T09:09:29.903Z,48.76
2019-04-03T09:10:28.414Z,50.22
2019-04-03T09:11:27.913Z,50.50
2019-04-03T09:12:27.901Z,48.74
2019-04-03T09:13:27.909Z,48.66
2019-04-03T09:14:29.921Z,48.54
2019-04-03T09:15:28.678Z,48.07
2019-04-03T09:16:28.830Z,48.92
2019-04-03T09:17:28.069Z,50.68
2019-04-03T09:18:30.333Z,50.73
2019-04-03T09:19:28.120Z,51.50
2019-04-03T09:20:27.835Z,52.31
2019-04-03T09:21:27.854Z,53.14
2019-04-03T09:22:27.775Z,53.75
2019-04-03T09:23:27.784Z,55.73
2019-04-03T09:24:29.631Z,53.80
2019-04-03T09:25:27.830Z,54.44
2019-04-03T09:26:27.746Z,55.37
2019-04-03T09:27:27.759Z,55.68
2019-04-03T09:28:27.718Z,54.16
2019-04-03T09:29:27.789Z,55.37
2019-04-03T09:30:27.710Z,55.77
2019-04-03T09:31:27.730Z,55.44
2019-04-03T09:32:27.853Z,54.64
2019-04-03T09:33:29.382Z,55.19
2019-04-03T09:34:29.661Z,54.18
2019-04-03T09:35:28.772Z,53.98
2019-04-03T09:36:27.634Z,53.88
2019-04-03T09:37:27.654Z,54.28
2019-04-03T09:38:27.664Z,54.31
2019-04-03T09:39:27.589Z,54.11
2019-04-03T09:40:27.645Z,53.98
2019-04-03T09:41:28.583Z,53.88
2019-04-03T09:42:27.545Z,53.25
2019-04-03T09:43:28.566Z,54.33
2019-04-03T09:44:27.606Z,53.34
2019-04-03T09:45:28.179Z,52.84
2019-04-03T09:46:30.463Z,53.85
2019-04-03T09:47:28.550Z,53.38
2019-04-03T09:48:27.620Z,52.97
2019-04-03T09:49:27.792Z,52.36
2019-04-03T09:50:27.459Z,52.87
2019-04-03T09:51:27.490Z,54.28
2019-04-03T09:52:38.296Z,54.96
2019-04-03T09:53:28.420Z,52.31
2019-04-03T09:54:28.818Z,53.12
2019-04-03T09:55:27.413Z,52.23
2019-04-03T09:56:27.403Z,51.30
2019-04-03T09:57:30.188Z,51.50
2019-04-03T09:58:27.404Z,52.61
2019-04-03T09:59:27.594Z,50.95
2019-04-03T10:00:27.355Z,50.04
2019-04-03T10:01:27.325Z,50.93
2019-04-03T10:02:27.327Z,51.00
2019-04-03T10:03:34.819Z,49.99
2019-04-03T10:04:27.572Z,49.77
2019-04-03T10:05:28.982Z,49.04
2019-04-03T10:06:30.440Z,48.36
2019-04-03T10:07:27.588Z,48.44
2019-04-03T10:08:27.354Z,47.96
2019-04-03T10:09:27.645Z,48.24
2019-04-03T10:10:27.292Z,49.04
2019-04-03T10:11:27.211Z,49.35
2019-04-03T10:12:27.229Z,49.35
2019-04-03T10:13:27.192Z,48.56
2019-04-03T10:14:28.144Z,48.69
2019-04-03T10:15:27.301Z,48.96
2019-04-03T10:16:27.408Z,49.27
2019-04-03T10:17:27.145Z,49.37
2019-04-03T10:18:27.241Z,49.15
2019-04-03T10:19:27.246Z,48.96
2019-04-03T10:20:27.130Z,47.96
2019-04-03T10:21:29.177Z,49.37
2019-04-03T10:22:27.264Z,48.64
2019-04-03T10:23:29.038Z,48.34
2019-04-03T10:24:27.079Z,48.54
2019-04-03T10:25:35.157Z,47.13
2019-04-03T10:26:27.052Z,48.56
2019-04-03T10:27:28.145Z,48.96
2019-04-03T10:28:27.024Z,48.79
2019-04-03T10:29:27.375Z,48.30
2019-04-03T10:30:28.072Z,49.11
2019-04-03T10:31:27.049Z,50.16
2019-04-03T10:32:28.039Z,50.59
2019-04-03T10:33:26.965Z,51.50
2019-04-03T10:34:26.973Z,51.71
2019-04-03T10:35:26.947Z,51.53
2019-04-03T10:36:26.954Z,51.93
2019-04-03T10:37:26.915Z,52.06
2019-04-03T10:38:27.249Z,52.46
2019-04-03T10:39:26.927Z,53.05
2019-04-03T10:40:26.897Z,53.05
2019-04-03T10:41:29.107Z,51.61
2019-04-03T10:42:26.935Z,51.48
2019-04-03T10:43:27.960Z,51.25
2019-04-03T10:44:26.877Z,50.87
2019-04-03T10:45:26.840Z,51.48
2019-04-03T10:46:26.819Z,51.96
2019-04-03T10:47:39.379Z,51.76
2019-04-03T10:48:28.700Z,52.16
2019-04-03T10:49:27.246Z,51.13
2019-04-03T10:50:26.784Z,51.23
2019-04-03T10:51:26.775Z,49.99
2019-04-03T10:52:26.923Z,51.23
2019-04-03T10:53:26.814Z,50.10
2019-04-03T10:54:26.764Z,49.97
2019-04-03T10:55:28.967Z,50.48
2019-04-03T10:56:26.745Z,49.35
2019-04-03T10:57:26.786Z,49.24
2019-04-03T10:58:26.949Z,49.04
2019-04-03T10:59:26.962Z,48.34
2019-04-03T11:00:29.114Z,48.66
2019-04-03T11:01:26.760Z,49.49
2019-04-03T11:02:26.729Z,50.07
2019-04-03T11:03:26.864Z,48.69
2019-04-03T11:04:27.799Z,49.72
2019-04-03T11:05:26.610Z,49.39
2019-04-03T11:06:26.922Z,50.93
2019-04-03T11:07:26.717Z,51.33
2019-04-03T11:08:26.572Z,50.55
2019-04-03T11:09:26.855Z,50.42
2019-04-03T11:10:26.547Z,50.02
2019-04-03T11:11:27.197Z,50.32
2019-04-03T11:12:26.817Z,50.04
2019-04-03T11:13:26.768Z,50.52
2019-04-03T11:14:26.526Z,50.32
2019-04-03T11:15:26.506Z,49.77
2019-04-03T11:16:26.484Z,48.66
2019-04-03T11:17:26.547Z,48.86
2019-04-03T11:18:27.025Z,49.07
2019-04-03T11:19:26.860Z,48.86
2019-04-03T11:20:26.428Z,48.76
2019-04-03T11:21:26.586Z,48.76
2019-04-03T11:22:30.378Z,49.24
2019-04-03T11:23:38.640Z,48.54
2019-04-03T11:24:27.750Z,48.76
2019-04-03T11:25:26.409Z,49.07
2019-04-03T11:26:26.372Z,48.66
2019-04-03T11:27:40.418Z,49.07
2019-04-03T11:28:27.354Z,49.47
2019-04-03T11:29:26.403Z,48.16
2019-04-03T11:30:28.488Z,49.27
2019-04-03T11:31:28.456Z,50.10
2019-04-03T11:32:26.365Z,51.10
2019-04-03T11:33:26.298Z,50.80
2019-04-03T11:34:26.369Z,50.98
2019-04-03T11:35:26.258Z,49.09
2019-04-03T11:36:29.714Z,50.98
2019-04-03T11:37:26.364Z,50.56
2019-04-03T11:38:29.087Z,49.97
2019-04-03T11:39:26.290Z,50.88
2019-04-03T11:40:26.210Z,49.16
2019-04-03T11:41:26.170Z,50.27
2019-04-03T11:42:29.240Z,49.09
2019-04-03T11:43:26.376Z,49.37
2019-04-03T11:44:26.151Z,49.15
2019-04-03T11:45:26.206Z,50.37
2019-04-03T11:46:26.234Z,50.98
2019-04-03T11:47:26.133Z,50.05
2019-04-03T11:48:27.206Z,49.16
2019-04-03T11:49:26.125Z,49.27
2019-04-03T11:50:26.536Z,48.92
2019-04-03T11:51:28.997Z,48.79
2019-04-03T11:52:26.076Z,48.79
2019-04-03T11:53:26.096Z,49.10
2019-04-03T11:54:26.420Z,48.49
2019-04-03T11:55:28.253Z,47.99
2019-04-03T11:56:26.104Z,48.29
2019-04-03T11:57:26.886Z,50.43
2019-04-03T11:58:28.097Z,49.44
2019-04-03T11:59:26.073Z,49.29
2019-04-03T12:00:26.011Z,50.02
2019-04-03T12:01:26.180Z,50.22
2019-04-03T12:02:27.127Z,50.85
2019-04-03T12:03:26.709Z,51.66
2019-04-03T12:04:26.066Z,51.68
2019-04-03T12:05:25.976Z,52.59
2019-04-03T12:06:26.419Z,52.29
2019-04-03T12:07:26.142Z,51.50
2019-04-03T12:08:28.512Z,52.82
2019-04-03T12:09:26.916Z,52.31
2019-04-03T12:10:26.233Z,53.20
2019-04-03T12:11:27.113Z,53.02
2019-04-03T12:12:26.265Z,52.19
2019-04-03T12:13:27.911Z,51.38
2019-04-03T12:14:25.868Z,52.87
2019-04-03T12:15:26.964Z,53.14
2019-04-03T12:16:26.267Z,52.54
2019-04-03T12:17:26.992Z,51.43
2019-04-03T12:18:25.783Z,51.40
2019-04-03T12:19:27.267Z,51.53
2019-04-03T12:20:26.164Z,51.93
2019-04-03T12:21:25.784Z,51.31
2019-04-03T12:22:25.773Z,51.03
2019-04-03T12:23:26.779Z,51.43
2019-04-03T12:24:26.170Z,51.73
2019-04-03T12:25:25.714Z,51.86
2019-04-03T12:26:25.747Z,52.87
2019-04-03T12:27:25.686Z,52.26
2019-04-03T12:28:26.707Z,51.48
2019-04-03T12:29:25.670Z,51.56
2019-04-03T12:30:27.299Z,52.67
2019-04-03T12:31:25.678Z,52.89
2019-04-03T12:32:36.516Z,53.00
2019-04-03T12:33:26.623Z,53.42
2019-04-03T12:34:26.710Z,53.12
2019-04-03T12:35:25.610Z,54.43
2019-04-03T12:36:27.544Z,53.83
2019-04-03T12:37:26.086Z,53.34
2019-04-03T12:38:33.341Z,53.85
2019-04-03T12:39:26.981Z,53.78
2019-04-03T12:40:25.879Z,55.49
2019-04-03T12:41:27.154Z,54.99
2019-04-03T12:42:34.223Z,55.36
2019-04-03T12:43:25.495Z,54.66
2019-04-03T12:44:33.344Z,54.46
2019-04-03T12:45:26.904Z,53.42
2019-04-03T12:46:26.626Z,53.12
2019-04-03T12:47:27.826Z,53.52
2019-04-03T12:48:27.888Z,53.83
2019-04-03T12:49:25.735Z,53.02
2019-04-03T12:50:28.574Z,53.63
2019-04-03T12:51:25.432Z,53.60
2019-04-03T12:52:27.549Z,53.30